sensor_id;sensor_type;location;lat;lon;timestamp;P1;durP1;ratioP1;P2;durP2;ratioP2
6937;SDS011;40040;42.706;23.372;2023-05-20T00:01:02;27.65;;;14.88;;
6937;SDS011;40040;42.706;23.372;2023-05-20T00:03:29;25.02;;;15.68;;
6937;SDS011;40040;42.706;23.372;2023-05-20T00:05:56;23.45;;;14.93;;
6937;SDS011;40040;42.706;23.372;2023-05-20T00:08:23;23.60;;;14.82;;
6937;SDS011;40040;42.706;23.372;2023-05-20T00:10:49;23.20;;;15.43;;
6937;SDS011;40040;42.706;23.372;2023-05-20T00:13:18;26.65;;;15.85;;
6937;SDS011;40040;42.706;23.372;2023-05-20T00:15:44;29.58;;;15.15;;
6937;SDS011;40040;42.706;23.372;2023-05-20T00:18:11;26.10;;;16.13;;
6937;SDS011;40040;42.706;23.372;2023-05-20T00:20:38;28.85;;;16.50;;
6937;SDS011;40040;42.706;23.372;2023-05-20T00:23:05;26.60;;;15.60;;
6937;SDS011;40040;42.706;23.372;2023-05-20T00:25:32;26.58;;;16.52;;
6937;SDS011;40040;42.706;23.372;2023-05-20T00:27:59;23.77;;;15.43;;
6937;SDS011;40040;42.706;23.372;2023-05-20T00:30:27;26.35;;;16.55;;
6937;SDS011;40040;42.706;23.372;2023-05-20T00:32:54;25.25;;;15.43;;
6937;SDS011;40040;42.706;23.372;2023-05-20T00:35:20;27.02;;;15.75;;
6937;SDS011;40040;42.706;23.372;2023-05-20T00:37:47;25.13;;;16.77;;
6937;SDS011;40040;42.706;23.372;2023-05-20T00:40:14;26.98;;;16.88;;
6937;SDS011;40040;42.706;23.372;2023-05-20T00:42:41;21.85;;;15.35;;
6937;SDS011;40040;42.706;23.372;2023-05-20T00:45:08;23.60;;;15.98;;
6937;SDS011;40040;42.706;23.372;2023-05-20T00:47:37;25.00;;;16.85;;
6937;SDS011;40040;42.706;23.372;2023-05-20T00:50:04;23.77;;;15.70;;
6937;SDS011;40040;42.706;23.372;2023-05-20T00:52:32;25.98;;;15.88;;
6937;SDS011;40040;42.706;23.372;2023-05-20T00:54:59;30.42;;;15.55;;
6937;SDS011;40040;42.706;23.372;2023-05-20T00:57:26;23.67;;;14.35;;
6937;SDS011;40040;42.706;23.372;2023-05-20T00:59:53;25.27;;;15.15;;
6937;SDS011;40040;42.706;23.372;2023-05-20T01:02:20;22.83;;;15.07;;
6937;SDS011;40040;42.706;23.372;2023-05-20T01:04:49;24.05;;;14.52;;
6937;SDS011;40040;42.706;23.372;2023-05-20T01:07:16;25.05;;;14.60;;
6937;SDS011;40040;42.706;23.372;2023-05-20T01:09:44;25.35;;;15.45;;
6937;SDS011;40040;42.706;23.372;2023-05-20T01:12:12;26.90;;;16.27;;
6937;SDS011;40040;42.706;23.372;2023-05-20T01:14:47;28.15;;;17.35;;
6937;SDS011;40040;42.706;23.372;2023-05-20T01:17:15;27.60;;;17.67;;
6937;SDS011;40040;42.706;23.372;2023-05-20T01:19:45;27.48;;;17.10;;
6937;SDS011;40040;42.706;23.372;2023-05-20T01:22:14;31.60;;;17.00;;
6937;SDS011;40040;42.706;23.372;2023-05-20T01:24:43;25.48;;;16.60;;
6937;SDS011;40040;42.706;23.372;2023-05-20T01:27:12;28.35;;;16.63;;
6937;SDS011;40040;42.706;23.372;2023-05-20T01:29:40;28.38;;;17.17;;
6937;SDS011;40040;42.706;23.372;2023-05-20T01:32:10;23.45;;;16.05;;
6937;SDS011;40040;42.706;23.372;2023-05-20T01:34:41;28.45;;;16.05;;
6937;SDS011;40040;42.706;23.372;2023-05-20T01:37:09;30.25;;;17.40;;
6937;SDS011;40040;42.706;23.372;2023-05-20T01:39:37;25.27;;;17.20;;
6937;SDS011;40040;42.706;23.372;2023-05-20T01:42:07;28.75;;;17.15;;
6937;SDS011;40040;42.706;23.372;2023-05-20T01:44:35;30.10;;;17.40;;
6937;SDS011;40040;42.706;23.372;2023-05-20T01:47:02;30.67;;;18.70;;
6937;SDS011;40040;42.706;23.372;2023-05-20T01:49:29;30.08;;;17.33;;
6937;SDS011;40040;42.706;23.372;2023-05-20T01:51:56;27.08;;;17.52;;
6937;SDS011;40040;42.706;23.372;2023-05-20T01:54:23;28.00;;;17.67;;
6937;SDS011;40040;42.706;23.372;2023-05-20T01:56:50;30.90;;;17.02;;
6937;SDS011;40040;42.706;23.372;2023-05-20T01:59:18;25.17;;;16.05;;
6937;SDS011;40040;42.706;23.372;2023-05-20T02:01:45;27.88;;;17.65;;
6937;SDS011;40040;42.706;23.372;2023-05-20T02:04:12;27.00;;;16.35;;
6937;SDS011;40040;42.706;23.372;2023-05-20T02:06:39;29.50;;;16.52;;
6937;SDS011;40040;42.706;23.372;2023-05-20T02:09:06;29.17;;;17.42;;
6937;SDS011;40040;42.706;23.372;2023-05-20T02:11:32;24.88;;;15.70;;
6937;SDS011;40040;42.706;23.372;2023-05-20T02:14:00;26.05;;;17.33;;
6937;SDS011;40040;42.706;23.372;2023-05-20T02:16:28;24.23;;;16.20;;
6937;SDS011;40040;42.706;23.372;2023-05-20T02:18:55;23.77;;;15.25;;
6937;SDS011;40040;42.706;23.372;2023-05-20T02:21:22;26.60;;;16.25;;
6937;SDS011;40040;42.706;23.372;2023-05-20T02:23:50;25.15;;;16.08;;
6937;SDS011;40040;42.706;23.372;2023-05-20T02:26:17;26.00;;;16.65;;
6937;SDS011;40040;42.706;23.372;2023-05-20T02:28:44;27.30;;;16.60;;
6937;SDS011;40040;42.706;23.372;2023-05-20T02:31:14;29.85;;;16.63;;
6937;SDS011;40040;42.706;23.372;2023-05-20T02:33:43;23.45;;;15.93;;
6937;SDS011;40040;42.706;23.372;2023-05-20T02:36:10;26.10;;;15.75;;
6937;SDS011;40040;42.706;23.372;2023-05-20T02:38:37;25.52;;;16.60;;
6937;SDS011;40040;42.706;23.372;2023-05-20T02:41:04;27.13;;;15.75;;
6937;SDS011;40040;42.706;23.372;2023-05-20T02:43:32;25.15;;;15.23;;
6937;SDS011;40040;42.706;23.372;2023-05-20T02:46:00;24.95;;;15.65;;
6937;SDS011;40040;42.706;23.372;2023-05-20T02:48:27;25.70;;;15.68;;
6937;SDS011;40040;42.706;23.372;2023-05-20T02:50:55;21.00;;;14.77;;
6937;SDS011;40040;42.706;23.372;2023-05-20T02:53:25;21.25;;;14.48;;
6937;SDS011;40040;42.706;23.372;2023-05-20T02:55:51;19.40;;;13.02;;
6937;SDS011;40040;42.706;23.372;2023-05-20T02:58:18;25.20;;;13.50;;
6937;SDS011;40040;42.706;23.372;2023-05-20T03:00:50;21.35;;;13.50;;
6937;SDS011;40040;42.706;23.372;2023-05-20T03:03:17;18.60;;;13.63;;
6937;SDS011;40040;42.706;23.372;2023-05-20T03:05:44;21.02;;;13.35;;
6937;SDS011;40040;42.706;23.372;2023-05-20T03:08:12;20.88;;;12.95;;
6937;SDS011;40040;42.706;23.372;2023-05-20T03:10:39;22.70;;;13.52;;
6937;SDS011;40040;42.706;23.372;2023-05-20T03:13:06;20.38;;;13.30;;
6937;SDS011;40040;42.706;23.372;2023-05-20T03:15:35;17.08;;;12.93;;
6937;SDS011;40040;42.706;23.372;2023-05-20T03:18:02;19.08;;;13.38;;
6937;SDS011;40040;42.706;23.372;2023-05-20T03:20:30;21.13;;;12.68;;
6937;SDS011;40040;42.706;23.372;2023-05-20T03:22:57;19.95;;;13.05;;
6937;SDS011;40040;42.706;23.372;2023-05-20T03:25:26;19.63;;;12.80;;
6937;SDS011;40040;42.706;23.372;2023-05-20T03:27:53;17.38;;;13.00;;
6937;SDS011;40040;42.706;23.372;2023-05-20T03:30:20;17.45;;;12.50;;
6937;SDS011;40040;42.706;23.372;2023-05-20T03:32:47;20.48;;;13.43;;
6937;SDS011;40040;42.706;23.372;2023-05-20T03:35:14;19.88;;;12.80;;
6937;SDS011;40040;42.706;23.372;2023-05-20T03:37:41;23.08;;;13.52;;
6937;SDS011;40040;42.706;23.372;2023-05-20T03:40:08;19.90;;;13.07;;
6937;SDS011;40040;42.706;23.372;2023-05-20T03:42:37;20.38;;;13.15;;
6937;SDS011;40040;42.706;23.372;2023-05-20T03:45:04;20.98;;;13.60;;
6937;SDS011;40040;42.706;23.372;2023-05-20T03:47:31;21.50;;;13.38;;
6937;SDS011;40040;42.706;23.372;2023-05-20T03:49:58;19.00;;;13.50;;
6937;SDS011;40040;42.706;23.372;2023-05-20T03:52:25;18.42;;;12.70;;
6937;SDS011;40040;42.706;23.372;2023-05-20T03:54:52;22.45;;;13.00;;
6937;SDS011;40040;42.706;23.372;2023-05-20T03:57:19;20.42;;;12.30;;
6937;SDS011;40040;42.706;23.372;2023-05-20T03:59:48;18.75;;;12.10;;
6937;SDS011;40040;42.706;23.372;2023-05-20T04:02:15;20.65;;;13.05;;
6937;SDS011;40040;42.706;23.372;2023-05-20T04:04:42;16.20;;;11.77;;
6937;SDS011;40040;42.706;23.372;2023-05-20T04:07:08;17.70;;;12.00;;
6937;SDS011;40040;42.706;23.372;2023-05-20T04:09:36;17.27;;;11.88;;
6937;SDS011;40040;42.706;23.372;2023-05-20T04:12:03;18.83;;;12.07;;
6937;SDS011;40040;42.706;23.372;2023-05-20T04:14:31;16.80;;;12.07;;
6937;SDS011;40040;42.706;23.372;2023-05-20T04:17:01;17.27;;;11.75;;
6937;SDS011;40040;42.706;23.372;2023-05-20T04:19:28;15.65;;;11.20;;
6937;SDS011;40040;42.706;23.372;2023-05-20T04:21:55;16.85;;;11.13;;
6937;SDS011;40040;42.706;23.372;2023-05-20T04:24:22;17.52;;;12.32;;
6937;SDS011;40040;42.706;23.372;2023-05-20T04:26:49;20.38;;;12.25;;
6937;SDS011;40040;42.706;23.372;2023-05-20T04:29:16;19.27;;;12.00;;
6937;SDS011;40040;42.706;23.372;2023-05-20T04:31:44;20.27;;;11.77;;
6937;SDS011;40040;42.706;23.372;2023-05-20T04:34:12;16.52;;;11.55;;
6937;SDS011;40040;42.706;23.372;2023-05-20T04:36:43;18.88;;;12.73;;
6937;SDS011;40040;42.706;23.372;2023-05-20T04:39:10;16.98;;;11.77;;
6937;SDS011;40040;42.706;23.372;2023-05-20T04:41:38;15.07;;;11.70;;
6937;SDS011;40040;42.706;23.372;2023-05-20T04:44:04;22.35;;;12.93;;
6937;SDS011;40040;42.706;23.372;2023-05-20T04:46:31;21.33;;;12.10;;
6937;SDS011;40040;42.706;23.372;2023-05-20T04:48:58;17.70;;;11.90;;
6937;SDS011;40040;42.706;23.372;2023-05-20T04:51:26;18.52;;;12.35;;
6937;SDS011;40040;42.706;23.372;2023-05-20T04:53:54;22.88;;;13.20;;
6937;SDS011;40040;42.706;23.372;2023-05-20T04:56:21;20.58;;;13.13;;
6937;SDS011;40040;42.706;23.372;2023-05-20T04:58:47;19.50;;;12.02;;
6937;SDS011;40040;42.706;23.372;2023-05-20T05:01:14;22.98;;;13.38;;
6937;SDS011;40040;42.706;23.372;2023-05-20T05:03:41;19.90;;;13.48;;
6937;SDS011;40040;42.706;23.372;2023-05-20T05:06:07;19.38;;;13.70;;
6937;SDS011;40040;42.706;23.372;2023-05-20T05:08:36;18.90;;;13.88;;
6937;SDS011;40040;42.706;23.372;2023-05-20T05:11:04;20.70;;;14.52;;
6937;SDS011;40040;42.706;23.372;2023-05-20T05:13:30;19.63;;;13.65;;
6937;SDS011;40040;42.706;23.372;2023-05-20T05:15:57;21.58;;;14.10;;
6937;SDS011;40040;42.706;23.372;2023-05-20T05:18:24;23.48;;;15.20;;
6937;SDS011;40040;42.706;23.372;2023-05-20T05:20:57;21.63;;;14.68;;
6937;SDS011;40040;42.706;23.372;2023-05-20T05:23:25;23.38;;;16.10;;
6937;SDS011;40040;42.706;23.372;2023-05-20T05:25:53;23.90;;;16.73;;
6937;SDS011;40040;42.706;23.372;2023-05-20T05:28:20;27.70;;;17.65;;
6937;SDS011;40040;42.706;23.372;2023-05-20T05:30:46;27.60;;;18.20;;
6937;SDS011;40040;42.706;23.372;2023-05-20T05:33:13;28.85;;;19.00;;
6937;SDS011;40040;42.706;23.372;2023-05-20T05:35:41;27.00;;;17.60;;
6937;SDS011;40040;42.706;23.372;2023-05-20T05:38:08;26.70;;;17.70;;
6937;SDS011;40040;42.706;23.372;2023-05-20T05:40:35;29.67;;;18.73;;
6937;SDS011;40040;42.706;23.372;2023-05-20T05:43:04;29.40;;;18.10;;
6937;SDS011;40040;42.706;23.372;2023-05-20T05:45:30;24.83;;;17.23;;
6937;SDS011;40040;42.706;23.372;2023-05-20T05:47:57;22.77;;;16.23;;
6937;SDS011;40040;42.706;23.372;2023-05-20T05:50:24;26.80;;;16.58;;
6937;SDS011;40040;42.706;23.372;2023-05-20T05:52:51;26.77;;;17.67;;
6937;SDS011;40040;42.706;23.372;2023-05-20T05:55:18;25.73;;;16.50;;
6937;SDS011;40040;42.706;23.372;2023-05-20T05:57:44;26.83;;;16.58;;
6937;SDS011;40040;42.706;23.372;2023-05-20T06:00:13;23.52;;;15.85;;
6937;SDS011;40040;42.706;23.372;2023-05-20T06:02:40;30.42;;;16.63;;
6937;SDS011;40040;42.706;23.372;2023-05-20T06:05:07;21.75;;;15.43;;
6937;SDS011;40040;42.706;23.372;2023-05-20T06:07:35;24.73;;;15.80;;
6937;SDS011;40040;42.706;23.372;2023-05-20T06:10:02;21.95;;;15.35;;
6937;SDS011;40040;42.706;23.372;2023-05-20T06:12:29;21.88;;;14.68;;
6937;SDS011;40040;42.706;23.372;2023-05-20T06:14:56;20.83;;;14.85;;
6937;SDS011;40040;42.706;23.372;2023-05-20T06:17:24;23.10;;;15.18;;
6937;SDS011;40040;42.706;23.372;2023-05-20T06:19:51;19.98;;;13.60;;
6937;SDS011;40040;42.706;23.372;2023-05-20T06:22:17;16.80;;;12.20;;
6937;SDS011;40040;42.706;23.372;2023-05-20T06:24:44;18.20;;;12.00;;
6937;SDS011;40040;42.706;23.372;2023-05-20T06:27:11;18.13;;;13.15;;
6937;SDS011;40040;42.706;23.372;2023-05-20T06:29:38;17.70;;;12.82;;
6937;SDS011;40040;42.706;23.372;2023-05-20T06:32:05;24.10;;;14.38;;
6937;SDS011;40040;42.706;23.372;2023-05-20T06:34:35;17.90;;;13.75;;
6937;SDS011;40040;42.706;23.372;2023-05-20T06:37:02;17.38;;;12.05;;
6937;SDS011;40040;42.706;23.372;2023-05-20T06:39:29;18.48;;;12.55;;
6937;SDS011;40040;42.706;23.372;2023-05-20T06:41:55;14.85;;;11.30;;
6937;SDS011;40040;42.706;23.372;2023-05-20T06:44:22;15.63;;;11.75;;
6937;SDS011;40040;42.706;23.372;2023-05-20T06:46:49;15.20;;;11.45;;
6937;SDS011;40040;42.706;23.372;2023-05-20T06:49:16;13.75;;;10.93;;
6937;SDS011;40040;42.706;23.372;2023-05-20T06:51:44;15.95;;;11.50;;
6937;SDS011;40040;42.706;23.372;2023-05-20T06:54:11;14.85;;;10.65;;
6937;SDS011;40040;42.706;23.372;2023-05-20T06:56:37;15.57;;;11.63;;
6937;SDS011;40040;42.706;23.372;2023-05-20T06:59:04;13.85;;;11.07;;
6937;SDS011;40040;42.706;23.372;2023-05-20T07:01:32;13.70;;;10.43;;
6937;SDS011;40040;42.706;23.372;2023-05-20T07:03:59;17.25;;;10.93;;
6937;SDS011;40040;42.706;23.372;2023-05-20T07:06:25;15.02;;;11.27;;
6937;SDS011;40040;42.706;23.372;2023-05-20T07:08:56;14.20;;;10.40;;
6937;SDS011;40040;42.706;23.372;2023-05-20T07:11:22;11.15;;;8.45;;
6937;SDS011;40040;42.706;23.372;2023-05-20T07:13:50;10.77;;;7.47;;
6937;SDS011;40040;42.706;23.372;2023-05-20T07:16:17;10.20;;;7.85;;
6937;SDS011;40040;42.706;23.372;2023-05-20T07:18:44;8.75;;;7.85;;
6937;SDS011;40040;42.706;23.372;2023-05-20T07:21:11;8.80;;;7.93;;
6937;SDS011;40040;42.706;23.372;2023-05-20T07:23:37;9.75;;;8.10;;
6937;SDS011;40040;42.706;23.372;2023-05-20T07:26:06;9.80;;;8.07;;
6937;SDS011;40040;42.706;23.372;2023-05-20T07:28:32;9.48;;;8.02;;
6937;SDS011;40040;42.706;23.372;2023-05-20T07:31:00;8.90;;;7.82;;
6937;SDS011;40040;42.706;23.372;2023-05-20T07:33:27;8.90;;;7.78;;
6937;SDS011;40040;42.706;23.372;2023-05-20T07:35:54;8.77;;;7.85;;
6937;SDS011;40040;42.706;23.372;2023-05-20T07:38:21;10.15;;;8.07;;
6937;SDS011;40040;42.706;23.372;2023-05-20T07:40:48;10.02;;;7.90;;
6937;SDS011;40040;42.706;23.372;2023-05-20T07:43:16;8.32;;;7.53;;
6937;SDS011;40040;42.706;23.372;2023-05-20T07:45:43;8.32;;;7.50;;
6937;SDS011;40040;42.706;23.372;2023-05-20T07:48:10;9.55;;;7.93;;
6937;SDS011;40040;42.706;23.372;2023-05-20T07:50:37;9.02;;;8.07;;
6937;SDS011;40040;42.706;23.372;2023-05-20T07:53:04;11.32;;;7.60;;
6937;SDS011;40040;42.706;23.372;2023-05-20T07:55:32;9.32;;;7.10;;
6937;SDS011;40040;42.706;23.372;2023-05-20T07:58:00;10.63;;;7.50;;
6937;SDS011;40040;42.706;23.372;2023-05-20T08:00:29;8.52;;;7.22;;
6937;SDS011;40040;42.706;23.372;2023-05-20T08:02:56;8.07;;;7.05;;
6937;SDS011;40040;42.706;23.372;2023-05-20T08:05:22;7.95;;;7.15;;
6937;SDS011;40040;42.706;23.372;2023-05-20T08:07:49;8.20;;;7.07;;
6937;SDS011;40040;42.706;23.372;2023-05-20T08:10:16;10.38;;;7.90;;
6937;SDS011;40040;42.706;23.372;2023-05-20T08:12:43;8.45;;;7.35;;
6937;SDS011;40040;42.706;23.372;2023-05-20T08:15:10;8.05;;;7.35;;
6937;SDS011;40040;42.706;23.372;2023-05-20T08:17:38;8.00;;;7.07;;
6937;SDS011;40040;42.706;23.372;2023-05-20T08:20:05;9.60;;;6.82;;
6937;SDS011;40040;42.706;23.372;2023-05-20T08:22:33;12.88;;;7.45;;
6937;SDS011;40040;42.706;23.372;2023-05-20T08:25:01;9.23;;;7.68;;
6937;SDS011;40040;42.706;23.372;2023-05-20T08:27:28;8.27;;;7.28;;
6937;SDS011;40040;42.706;23.372;2023-05-20T08:29:55;7.30;;;6.60;;
6937;SDS011;40040;42.706;23.372;2023-05-20T08:32:22;9.13;;;7.15;;
6937;SDS011;40040;42.706;23.372;2023-05-20T08:34:50;7.75;;;6.32;;
6937;SDS011;40040;42.706;23.372;2023-05-20T08:37:17;9.82;;;7.55;;
6937;SDS011;40040;42.706;23.372;2023-05-20T08:39:44;7.80;;;7.05;;
6937;SDS011;40040;42.706;23.372;2023-05-20T08:42:12;9.43;;;7.90;;
6937;SDS011;40040;42.706;23.372;2023-05-20T08:44:39;9.50;;;7.05;;
6937;SDS011;40040;42.706;23.372;2023-05-20T08:47:07;7.95;;;7.15;;
6937;SDS011;40040;42.706;23.372;2023-05-20T08:49:35;11.38;;;7.68;;
6937;SDS011;40040;42.706;23.372;2023-05-20T08:52:03;11.38;;;7.32;;
6937;SDS011;40040;42.706;23.372;2023-05-20T08:54:35;9.50;;;7.15;;
6937;SDS011;40040;42.706;23.372;2023-05-20T08:57:09;7.97;;;6.90;;
6937;SDS011;40040;42.706;23.372;2023-05-20T08:59:38;8.82;;;7.32;;
6937;SDS011;40040;42.706;23.372;2023-05-20T09:02:07;8.55;;;7.35;;
6937;SDS011;40040;42.706;23.372;2023-05-20T09:04:34;8.27;;;7.30;;
6937;SDS011;40040;42.706;23.372;2023-05-20T09:07:01;8.35;;;7.55;;
6937;SDS011;40040;42.706;23.372;2023-05-20T09:09:31;8.48;;;7.40;;
6937;SDS011;40040;42.706;23.372;2023-05-20T09:11:59;7.95;;;6.55;;
6937;SDS011;40040;42.706;23.372;2023-05-20T09:14:27;9.55;;;6.97;;
6937;SDS011;40040;42.706;23.372;2023-05-20T09:16:54;7.85;;;7.13;;
6937;SDS011;40040;42.706;23.372;2023-05-20T09:19:21;11.50;;;6.95;;
6937;SDS011;40040;42.706;23.372;2023-05-20T09:21:50;7.78;;;6.97;;
6937;SDS011;40040;42.706;23.372;2023-05-20T09:24:21;7.35;;;6.65;;
6937;SDS011;40040;42.706;23.372;2023-05-20T09:26:49;7.72;;;6.82;;
6937;SDS011;40040;42.706;23.372;2023-05-20T09:29:16;8.00;;;7.30;;
6937;SDS011;40040;42.706;23.372;2023-05-20T09:31:46;9.25;;;6.55;;
6937;SDS011;40040;42.706;23.372;2023-05-20T09:34:13;8.27;;;7.38;;
6937;SDS011;40040;42.706;23.372;2023-05-20T09:36:40;7.85;;;7.05;;
6937;SDS011;40040;42.706;23.372;2023-05-20T09:39:10;7.78;;;7.03;;
6937;SDS011;40040;42.706;23.372;2023-05-20T09:41:43;7.95;;;7.15;;
6937;SDS011;40040;42.706;23.372;2023-05-20T09:44:17;9.25;;;7.05;;
6937;SDS011;40040;42.706;23.372;2023-05-20T09:46:45;9.30;;;7.15;;
6937;SDS011;40040;42.706;23.372;2023-05-20T09:49:13;7.85;;;7.18;;
6937;SDS011;40040;42.706;23.372;2023-05-20T09:51:42;10.88;;;7.22;;
6937;SDS011;40040;42.706;23.372;2023-05-20T09:54:09;7.30;;;6.57;;
6937;SDS011;40040;42.706;23.372;2023-05-20T09:56:38;7.78;;;7.07;;
6937;SDS011;40040;42.706;23.372;2023-05-20T09:59:08;7.70;;;7.00;;
6937;SDS011;40040;42.706;23.372;2023-05-20T10:01:36;8.00;;;7.18;;
6937;SDS011;40040;42.706;23.372;2023-05-20T10:04:04;8.27;;;7.47;;
6937;SDS011;40040;42.706;23.372;2023-05-20T10:06:43;8.35;;;7.22;;
6937;SDS011;40040;42.706;23.372;2023-05-20T10:09:29;7.53;;;6.82;;
6937;SDS011;40040;42.706;23.372;2023-05-20T10:12:10;9.85;;;7.28;;
6937;SDS011;40040;42.706;23.372;2023-05-20T10:14:50;7.43;;;6.72;;
6937;SDS011;40040;42.706;23.372;2023-05-20T10:17:27;7.07;;;6.38;;
6937;SDS011;40040;42.706;23.372;2023-05-20T10:20:05;6.80;;;6.10;;
6937;SDS011;40040;42.706;23.372;2023-05-20T10:22:35;7.40;;;6.28;;
6937;SDS011;40040;42.706;23.372;2023-05-20T10:25:03;6.43;;;5.90;;
6937;SDS011;40040;42.706;23.372;2023-05-20T10:27:41;6.25;;;5.50;;
6937;SDS011;40040;42.706;23.372;2023-05-20T10:30:15;8.18;;;6.35;;
6937;SDS011;40040;42.706;23.372;2023-05-20T10:32:54;6.75;;;5.53;;
6937;SDS011;40040;42.706;23.372;2023-05-20T10:35:25;6.10;;;5.50;;
6937;SDS011;40040;42.706;23.372;2023-05-20T10:37:53;5.75;;;4.80;;
6937;SDS011;40040;42.706;23.372;2023-05-20T10:40:21;5.95;;;5.40;;
6937;SDS011;40040;42.706;23.372;2023-05-20T10:42:48;6.10;;;5.45;;
6937;SDS011;40040;42.706;23.372;2023-05-20T10:45:25;6.15;;;5.40;;
6937;SDS011;40040;42.706;23.372;2023-05-20T10:47:53;9.90;;;6.70;;
6937;SDS011;40040;42.706;23.372;2023-05-20T10:50:25;10.18;;;6.68;;
6937;SDS011;40040;42.706;23.372;2023-05-20T10:52:53;11.30;;;8.10;;
6937;SDS011;40040;42.706;23.372;2023-05-20T10:55:20;8.40;;;7.00;;
6937;SDS011;40040;42.706;23.372;2023-05-20T10:57:48;9.25;;;6.38;;
6937;SDS011;40040;42.706;23.372;2023-05-20T11:00:15;7.05;;;6.20;;
6937;SDS011;40040;42.706;23.372;2023-05-20T11:02:43;7.30;;;6.60;;
6937;SDS011;40040;42.706;23.372;2023-05-20T11:05:11;6.50;;;5.95;;
6937;SDS011;40040;42.706;23.372;2023-05-20T11:07:38;6.75;;;5.97;;
6937;SDS011;40040;42.706;23.372;2023-05-20T11:10:06;6.82;;;6.18;;
6937;SDS011;40040;42.706;23.372;2023-05-20T11:12:34;7.90;;;6.10;;
6937;SDS011;40040;42.706;23.372;2023-05-20T11:15:01;7.85;;;6.35;;
6937;SDS011;40040;42.706;23.372;2023-05-20T11:17:28;9.30;;;5.93;;
6937;SDS011;40040;42.706;23.372;2023-05-20T11:19:57;8.15;;;6.38;;
6937;SDS011;40040;42.706;23.372;2023-05-20T11:22:25;7.07;;;6.38;;
6937;SDS011;40040;42.706;23.372;2023-05-20T11:24:51;6.57;;;5.97;;
6937;SDS011;40040;42.706;23.372;2023-05-20T11:27:18;8.15;;;6.43;;
6937;SDS011;40040;42.706;23.372;2023-05-20T11:29:45;7.10;;;6.03;;
6937;SDS011;40040;42.706;23.372;2023-05-20T11:32:18;10.00;;;6.88;;
6937;SDS011;40040;42.706;23.372;2023-05-20T11:34:49;7.72;;;6.70;;
6937;SDS011;40040;42.706;23.372;2023-05-20T11:37:18;8.93;;;6.75;;
6937;SDS011;40040;42.706;23.372;2023-05-20T11:39:46;6.82;;;6.22;;
6937;SDS011;40040;42.706;23.372;2023-05-20T11:42:13;8.43;;;6.38;;
6937;SDS011;40040;42.706;23.372;2023-05-20T11:44:41;6.82;;;6.15;;
6937;SDS011;40040;42.706;23.372;2023-05-20T11:47:09;6.80;;;6.10;;
6937;SDS011;40040;42.706;23.372;2023-05-20T11:49:38;7.97;;;5.90;;
6937;SDS011;40040;42.706;23.372;2023-05-20T11:52:06;6.75;;;6.13;;
6937;SDS011;40040;42.706;23.372;2023-05-20T11:54:35;9.38;;;6.50;;
6937;SDS011;40040;42.706;23.372;2023-05-20T11:57:03;7.05;;;6.28;;
6937;SDS011;40040;42.706;23.372;2023-05-20T11:59:30;7.35;;;6.75;;
6937;SDS011;40040;42.706;23.372;2023-05-20T12:01:56;7.70;;;6.22;;
6937;SDS011;40040;42.706;23.372;2023-05-20T12:04:24;16.30;;;7.68;;
6937;SDS011;40040;42.706;23.372;2023-05-20T12:06:50;7.20;;;6.60;;
6937;SDS011;40040;42.706;23.372;2023-05-20T12:09:17;9.45;;;6.65;;
6937;SDS011;40040;42.706;23.372;2023-05-20T12:11:46;11.93;;;6.82;;
6937;SDS011;40040;42.706;23.372;2023-05-20T12:14:12;9.35;;;7.43;;
6937;SDS011;40040;42.706;23.372;2023-05-20T12:16:39;7.93;;;7.10;;
6937;SDS011;40040;42.706;23.372;2023-05-20T12:19:06;7.88;;;7.07;;
6937;SDS011;40040;42.706;23.372;2023-05-20T12:21:33;9.05;;;7.13;;
6937;SDS011;40040;42.706;23.372;2023-05-20T12:24:00;8.05;;;6.75;;
6937;SDS011;40040;42.706;23.372;2023-05-20T12:26:29;8.43;;;7.18;;
6937;SDS011;40040;42.706;23.372;2023-05-20T12:28:57;8.32;;;6.43;;
6937;SDS011;40040;42.706;23.372;2023-05-20T12:31:24;6.75;;;6.13;;
6937;SDS011;40040;42.706;23.372;2023-05-20T12:33:51;8.40;;;6.22;;
6937;SDS011;40040;42.706;23.372;2023-05-20T12:36:18;7.05;;;6.35;;
6937;SDS011;40040;42.706;23.372;2023-05-20T12:38:45;4.30;;;3.90;;
6937;SDS011;40040;42.706;23.372;2023-05-20T12:41:12;3.13;;;2.85;;
6937;SDS011;40040;42.706;23.372;2023-05-20T12:43:39;6.95;;;3.05;;
6937;SDS011;40040;42.706;23.372;2023-05-20T12:46:07;7.97;;;3.80;;
6937;SDS011;40040;42.706;23.372;2023-05-20T12:48:34;6.78;;;4.38;;
6937;SDS011;40040;42.706;23.372;2023-05-20T12:51:00;8.15;;;4.32;;
6937;SDS011;40040;42.706;23.372;2023-05-20T12:53:27;4.35;;;3.95;;
6937;SDS011;40040;42.706;23.372;2023-05-20T12:55:54;7.05;;;4.80;;
6937;SDS011;40040;42.706;23.372;2023-05-20T12:58:21;4.50;;;4.20;;
6937;SDS011;40040;42.706;23.372;2023-05-20T13:00:48;4.93;;;4.63;;
6937;SDS011;40040;42.706;23.372;2023-05-20T13:03:16;5.32;;;4.38;;
6937;SDS011;40040;42.706;23.372;2023-05-20T13:05:42;5.85;;;5.25;;
6937;SDS011;40040;42.706;23.372;2023-05-20T13:08:09;6.00;;;5.40;;
6937;SDS011;40040;42.706;23.372;2023-05-20T13:10:37;6.00;;;5.30;;
6937;SDS011;40040;42.706;23.372;2023-05-20T13:13:03;6.03;;;4.93;;
6937;SDS011;40040;42.706;23.372;2023-05-20T13:15:30;5.55;;;5.00;;
6937;SDS011;40040;42.706;23.372;2023-05-20T13:17:58;5.40;;;4.97;;
6937;SDS011;40040;42.706;23.372;2023-05-20T13:20:29;6.30;;;5.05;;
6937;SDS011;40040;42.706;23.372;2023-05-20T13:22:56;5.75;;;5.28;;
6937;SDS011;40040;42.706;23.372;2023-05-20T13:25:23;6.00;;;5.43;;
6937;SDS011;40040;42.706;23.372;2023-05-20T13:27:49;5.95;;;5.35;;
6937;SDS011;40040;42.706;23.372;2023-05-20T13:30:16;6.13;;;5.53;;
6937;SDS011;40040;42.706;23.372;2023-05-20T13:32:43;6.30;;;5.70;;
6937;SDS011;40040;42.706;23.372;2023-05-20T13:35:10;6.10;;;5.50;;
6937;SDS011;40040;42.706;23.372;2023-05-20T13:37:38;7.43;;;5.57;;
6937;SDS011;40040;42.706;23.372;2023-05-20T13:40:05;6.00;;;5.40;;
6937;SDS011;40040;42.706;23.372;2023-05-20T13:42:33;6.55;;;5.88;;
6937;SDS011;40040;42.706;23.372;2023-05-20T13:45:00;6.38;;;5.72;;
6937;SDS011;40040;42.706;23.372;2023-05-20T13:47:27;6.65;;;5.90;;
6937;SDS011;40040;42.706;23.372;2023-05-20T13:49:54;6.57;;;5.97;;
6937;SDS011;40040;42.706;23.372;2023-05-20T13:52:20;9.30;;;6.68;;
6937;SDS011;40040;42.706;23.372;2023-05-20T13:54:49;10.93;;;6.00;;
6937;SDS011;40040;42.706;23.372;2023-05-20T13:57:15;10.77;;;6.45;;
6937;SDS011;40040;42.706;23.372;2023-05-20T13:59:42;6.40;;;5.80;;
6937;SDS011;40040;42.706;23.372;2023-05-20T14:02:09;6.57;;;5.28;;
6937;SDS011;40040;42.706;23.372;2023-05-20T14:04:36;7.72;;;6.43;;
6937;SDS011;40040;42.706;23.372;2023-05-20T14:07:03;7.97;;;6.22;;
6937;SDS011;40040;42.706;23.372;2023-05-20T14:09:30;6.43;;;5.80;;
6937;SDS011;40040;42.706;23.372;2023-05-20T14:11:59;5.53;;;5.03;;
6937;SDS011;40040;42.706;23.372;2023-05-20T14:14:25;6.32;;;5.68;;
6937;SDS011;40040;42.706;23.372;2023-05-20T14:16:52;6.20;;;5.70;;
6937;SDS011;40040;42.706;23.372;2023-05-20T14:19:19;7.35;;;6.00;;
6937;SDS011;40040;42.706;23.372;2023-05-20T14:21:46;6.60;;;5.90;;
6937;SDS011;40040;42.706;23.372;2023-05-20T14:24:13;6.75;;;6.15;;
6937;SDS011;40040;42.706;23.372;2023-05-20T14:26:40;6.82;;;6.00;;
6937;SDS011;40040;42.706;23.372;2023-05-20T14:29:08;9.93;;;6.68;;
6937;SDS011;40040;42.706;23.372;2023-05-20T14:31:35;7.97;;;5.95;;
6937;SDS011;40040;42.706;23.372;2023-05-20T14:34:02;7.97;;;6.13;;
6937;SDS011;40040;42.706;23.372;2023-05-20T14:36:29;10.82;;;6.60;;